Terminal Aerodrome Forecast
Issued by NWS

Home | Current Version | Previous Version | Text Only | Print | Product List | Glossary On
Versions: 1 2 3 4 5 6 7 8 9 10 11 12 13
000
FTUS46 KPDT 282320
TAFPSC
TAF
KPSC 282320Z 2900/2924 26005KT P6SM FEW070
     FM290300 22005KT P6SM BKN070
     FM291400 22010G18KT P6SM BKN060
     FM292000 24012G20KT P6SM -SHRA BKN060 OVC080=

USA.gov is the U.S. government's official web portal to all federal, state and local government web resources and services.